sensor_id;sensor_type;location;lat;lon;timestamp;temperature;humidity
23079;DHT22;11707;50.830;4.364;2023-04-03T00:01:37;5.50;87.10
23079;DHT22;11707;50.830;4.364;2023-04-03T00:04:05;5.50;90.10
23079;DHT22;11707;50.830;4.364;2023-04-03T00:06:31;5.40;88.20
23079;DHT22;11707;50.830;4.364;2023-04-03T00:08:57;5.50;90.20
23079;DHT22;11707;50.830;4.364;2023-04-03T00:11:23;5.30;90.80
23079;DHT22;11707;50.830;4.364;2023-04-03T00:13:51;5.30;91.00
23079;DHT22;11707;50.830;4.364;2023-04-03T00:16:20;5.10;91.70
23079;DHT22;11707;50.830;4.364;2023-04-03T00:18:45;5.10;93.20
23079;DHT22;11707;50.830;4.364;2023-04-03T00:21:13;5.10;92.20
23079;DHT22;11707;50.830;4.364;2023-04-03T00:23:38;5.20;92.00
23079;DHT22;11707;50.830;4.364;2023-04-03T00:26:07;5.10;92.10
23079;DHT22;11707;50.830;4.364;2023-04-03T00:28:33;5.10;92.90
23079;DHT22;11707;50.830;4.364;2023-04-03T00:30:59;5.10;93.20
23079;DHT22;11707;50.830;4.364;2023-04-03T00:33:25;5.10;91.50
23079;DHT22;11707;50.830;4.364;2023-04-03T00:35:51;5.20;91.20
23079;DHT22;11707;50.830;4.364;2023-04-03T00:38:20;5.20;90.40
23079;DHT22;11707;50.830;4.364;2023-04-03T00:40:47;5.10;88.90
23079;DHT22;11707;50.830;4.364;2023-04-03T00:43:16;5.10;90.20
23079;DHT22;11707;50.830;4.364;2023-04-03T00:45:44;5.00;87.80
23079;DHT22;11707;50.830;4.364;2023-04-03T00:48:15;5.10;87.70
23079;DHT22;11707;50.830;4.364;2023-04-03T00:50:45;5.00;86.40
23079;DHT22;11707;50.830;4.364;2023-04-03T00:53:16;4.90;89.90
23079;DHT22;11707;50.830;4.364;2023-04-03T00:55:43;4.80;90.50
23079;DHT22;11707;50.830;4.364;2023-04-03T00:58:10;4.70;91.80
23079;DHT22;11707;50.830;4.364;2023-04-03T01:00:43;4.60;92.80
23079;DHT22;11707;50.830;4.364;2023-04-03T01:03:10;4.70;94.10
23079;DHT22;11707;50.830;4.364;2023-04-03T01:05:36;4.70;93.30
23079;DHT22;11707;50.830;4.364;2023-04-03T01:08:02;4.60;92.50
23079;DHT22;11707;50.830;4.364;2023-04-03T01:10:27;4.50;93.90
23079;DHT22;11707;50.830;4.364;2023-04-03T01:12:56;4.50;94.40
23079;DHT22;11707;50.830;4.364;2023-04-03T01:15:26;4.50;94.90
23079;DHT22;11707;50.830;4.364;2023-04-03T01:17:58;4.60;94.50
23079;DHT22;11707;50.830;4.364;2023-04-03T01:25:39;4.30;95.10
23079;DHT22;11707;50.830;4.364;2023-04-03T01:28:07;4.30;96.40
23079;DHT22;11707;50.830;4.364;2023-04-03T01:33:22;4.30;95.10
23079;DHT22;11707;50.830;4.364;2023-04-03T01:35:48;4.20;96.10
23079;DHT22;11707;50.830;4.364;2023-04-03T01:38:14;4.20;96.40
23079;DHT22;11707;50.830;4.364;2023-04-03T01:40:40;4.20;96.50
23079;DHT22;11707;50.830;4.364;2023-04-03T01:43:06;4.30;96.20
23079;DHT22;11707;50.830;4.364;2023-04-03T01:45:31;4.20;96.00
23079;DHT22;11707;50.830;4.364;2023-04-03T01:47:57;4.20;96.30
23079;DHT22;11707;50.830;4.364;2023-04-03T01:50:23;4.20;97.30
23079;DHT22;11707;50.830;4.364;2023-04-03T01:52:48;4.20;97.30
23079;DHT22;11707;50.830;4.364;2023-04-03T01:55:17;4.10;96.90
23079;DHT22;11707;50.830;4.364;2023-04-03T01:57:43;4.20;97.40
23079;DHT22;11707;50.830;4.364;2023-04-03T02:00:09;4.30;95.90
23079;DHT22;11707;50.830;4.364;2023-04-03T02:02:35;4.30;94.90
23079;DHT22;11707;50.830;4.364;2023-04-03T02:05:01;4.10;95.10
23079;DHT22;11707;50.830;4.364;2023-04-03T02:07:27;4.00;97.80
23079;DHT22;11707;50.830;4.364;2023-04-03T02:09:53;3.90;98.80
23079;DHT22;11707;50.830;4.364;2023-04-03T02:12:22;3.90;98.50
23079;DHT22;11707;50.830;4.364;2023-04-03T02:14:47;3.90;99.00
23079;DHT22;11707;50.830;4.364;2023-04-03T02:17:16;4.00;98.70
23079;DHT22;11707;50.830;4.364;2023-04-03T02:19:42;3.90;99.10
23079;DHT22;11707;50.830;4.364;2023-04-03T02:22:08;3.80;99.40
23079;DHT22;11707;50.830;4.364;2023-04-03T02:24:37;3.70;99.20
23079;DHT22;11707;50.830;4.364;2023-04-03T02:27:04;3.80;99.90
23079;DHT22;11707;50.830;4.364;2023-04-03T02:29:35;3.80;99.90
23079;DHT22;11707;50.830;4.364;2023-04-03T02:32:01;3.60;99.90
23079;DHT22;11707;50.830;4.364;2023-04-03T02:34:27;3.60;99.50
23079;DHT22;11707;50.830;4.364;2023-04-03T02:36:55;3.70;99.70
23079;DHT22;11707;50.830;4.364;2023-04-03T02:39:23;3.70;99.60
23079;DHT22;11707;50.830;4.364;2023-04-03T02:41:50;3.70;99.70
23079;DHT22;11707;50.830;4.364;2023-04-03T02:44:15;3.80;99.10
23079;DHT22;11707;50.830;4.364;2023-04-03T02:46:41;3.70;99.50
23079;DHT22;11707;50.830;4.364;2023-04-03T02:49:07;3.60;99.70
23079;DHT22;11707;50.830;4.364;2023-04-03T02:51:33;3.50;99.90
23079;DHT22;11707;50.830;4.364;2023-04-03T02:53:59;3.60;99.90
23079;DHT22;11707;50.830;4.364;2023-04-03T02:56:25;3.60;99.90
23079;DHT22;11707;50.830;4.364;2023-04-03T02:58:52;3.60;99.90
23079;DHT22;11707;50.830;4.364;2023-04-03T03:01:18;3.60;99.90
23079;DHT22;11707;50.830;4.364;2023-04-03T03:03:44;3.60;99.50
23079;DHT22;11707;50.830;4.364;2023-04-03T03:06:13;3.50;99.90
23079;DHT22;11707;50.830;4.364;2023-04-03T03:08:40;3.50;99.90
23079;DHT22;11707;50.830;4.364;2023-04-03T03:11:07;3.50;99.90
23079;DHT22;11707;50.830;4.364;2023-04-03T03:13:33;3.40;99.90
23079;DHT22;11707;50.830;4.364;2023-04-03T03:16:02;3.40;99.90
23079;DHT22;11707;50.830;4.364;2023-04-03T03:18:28;3.50;99.90
23079;DHT22;11707;50.830;4.364;2023-04-03T03:20:57;3.50;99.90
23079;DHT22;11707;50.830;4.364;2023-04-03T03:23:24;3.60;99.90
23079;DHT22;11707;50.830;4.364;2023-04-03T03:25:59;3.60;99.60
23079;DHT22;11707;50.830;4.364;2023-04-03T03:28:25;3.50;99.90
23079;DHT22;11707;50.830;4.364;2023-04-03T03:30:53;3.40;99.90
23079;DHT22;11707;50.830;4.364;2023-04-03T03:33:26;3.50;99.90
23079;DHT22;11707;50.830;4.364;2023-04-03T03:35:53;3.60;99.90
23079;DHT22;11707;50.830;4.364;2023-04-03T03:38:22;3.50;99.90
23079;DHT22;11707;50.830;4.364;2023-04-03T03:40:49;3.40;99.90
23079;DHT22;11707;50.830;4.364;2023-04-03T03:43:16;3.40;99.90
23079;DHT22;11707;50.830;4.364;2023-04-03T03:45:44;3.50;99.90
23079;DHT22;11707;50.830;4.364;2023-04-03T03:48:11;3.60;99.90
23079;DHT22;11707;50.830;4.364;2023-04-03T03:50:39;3.60;99.10
23079;DHT22;11707;50.830;4.364;2023-04-03T03:53:05;3.50;99.90
23079;DHT22;11707;50.830;4.364;2023-04-03T03:55:31;3.60;99.80
23079;DHT22;11707;50.830;4.364;2023-04-03T03:57:56;3.70;98.50
23079;DHT22;11707;50.830;4.364;2023-04-03T04:00:22;3.70;97.90
23079;DHT22;11707;50.830;4.364;2023-04-03T04:02:50;3.60;98.70
23079;DHT22;11707;50.830;4.364;2023-04-03T04:05:20;3.60;98.90
23079;DHT22;11707;50.830;4.364;2023-04-03T04:07:48;3.70;98.70
23079;DHT22;11707;50.830;4.364;2023-04-03T04:10:14;3.60;97.40
23079;DHT22;11707;50.830;4.364;2023-04-03T04:12:40;3.60;98.30
23079;DHT22;11707;50.830;4.364;2023-04-03T04:15:06;3.60;99.10
23079;DHT22;11707;50.830;4.364;2023-04-03T04:17:32;3.50;98.80
23079;DHT22;11707;50.830;4.364;2023-04-03T04:19:59;3.40;98.90
23079;DHT22;11707;50.830;4.364;2023-04-03T04:22:25;3.40;99.90
23079;DHT22;11707;50.830;4.364;2023-04-03T04:24:53;3.40;99.90
23079;DHT22;11707;50.830;4.364;2023-04-03T04:27:22;3.50;99.90
23079;DHT22;11707;50.830;4.364;2023-04-03T04:29:47;3.50;99.10
23079;DHT22;11707;50.830;4.364;2023-04-03T04:32:18;3.40;99.30
23079;DHT22;11707;50.830;4.364;2023-04-03T04:34:44;3.40;99.50
23079;DHT22;11707;50.830;4.364;2023-04-03T04:37:13;3.50;99.20
23079;DHT22;11707;50.830;4.364;2023-04-03T04:39:41;3.40;99.70
23079;DHT22;11707;50.830;4.364;2023-04-03T04:42:06;3.40;99.80
23079;DHT22;11707;50.830;4.364;2023-04-03T04:44:43;3.40;99.90
23079;DHT22;11707;50.830;4.364;2023-04-03T04:47:09;3.30;99.90
23079;DHT22;11707;50.830;4.364;2023-04-03T04:49:34;3.30;99.90
23079;DHT22;11707;50.830;4.364;2023-04-03T04:52:00;3.30;99.90
23079;DHT22;11707;50.830;4.364;2023-04-03T04:54:28;3.20;99.90
23079;DHT22;11707;50.830;4.364;2023-04-03T04:56:54;3.00;99.90
23079;DHT22;11707;50.830;4.364;2023-04-03T04:59:20;3.00;99.90
23079;DHT22;11707;50.830;4.364;2023-04-03T05:01:45;3.10;99.90
23079;DHT22;11707;50.830;4.364;2023-04-03T05:04:11;3.20;99.90
23079;DHT22;11707;50.830;4.364;2023-04-03T05:06:38;3.10;99.90
23079;DHT22;11707;50.830;4.364;2023-04-03T05:09:04;3.10;99.90
23079;DHT22;11707;50.830;4.364;2023-04-03T05:11:32;3.20;99.90
23079;DHT22;11707;50.830;4.364;2023-04-03T05:13:58;3.20;99.90
23079;DHT22;11707;50.830;4.364;2023-04-03T05:16:24;3.30;99.90
23079;DHT22;11707;50.830;4.364;2023-04-03T05:18:50;3.30;99.90
23079;DHT22;11707;50.830;4.364;2023-04-03T05:21:16;3.30;99.90
23079;DHT22;11707;50.830;4.364;2023-04-03T05:23:43;3.30;99.90
23079;DHT22;11707;50.830;4.364;2023-04-03T05:26:09;3.30;99.90
23079;DHT22;11707;50.830;4.364;2023-04-03T05:28:38;3.30;99.90
23079;DHT22;11707;50.830;4.364;2023-04-03T05:31:03;3.00;99.90
23079;DHT22;11707;50.830;4.364;2023-04-03T05:33:29;3.10;99.90
23079;DHT22;11707;50.830;4.364;2023-04-03T05:35:55;3.20;99.90
23079;DHT22;11707;50.830;4.364;2023-04-03T05:38:21;3.30;99.90
23079;DHT22;11707;50.830;4.364;2023-04-03T05:40:46;3.20;99.90
23079;DHT22;11707;50.830;4.364;2023-04-03T05:43:12;3.30;99.90
23079;DHT22;11707;50.830;4.364;2023-04-03T05:45:38;3.30;99.90
23079;DHT22;11707;50.830;4.364;2023-04-03T05:48:06;3.30;99.90
23079;DHT22;11707;50.830;4.364;2023-04-03T05:50:34;3.10;99.90
23079;DHT22;11707;50.830;4.364;2023-04-03T05:53:03;3.10;99.90
23079;DHT22;11707;50.830;4.364;2023-04-03T05:55:29;3.10;99.90
23079;DHT22;11707;50.830;4.364;2023-04-03T05:57:55;3.20;99.90
23079;DHT22;11707;50.830;4.364;2023-04-03T06:00:20;3.20;99.90
23079;DHT22;11707;50.830;4.364;2023-04-03T06:02:48;3.40;99.90
23079;DHT22;11707;50.830;4.364;2023-04-03T06:05:14;3.50;99.90
23079;DHT22;11707;50.830;4.364;2023-04-03T06:07:45;3.50;99.50
23079;DHT22;11707;50.830;4.364;2023-04-03T06:10:12;3.50;98.50
23079;DHT22;11707;50.830;4.364;2023-04-03T06:12:38;3.70;98.50
23079;DHT22;11707;50.830;4.364;2023-04-03T06:15:05;3.80;97.60
23079;DHT22;11707;50.830;4.364;2023-04-03T06:17:33;4.00;96.30
23079;DHT22;11707;50.830;4.364;2023-04-03T06:20:01;4.00;95.40
23079;DHT22;11707;50.830;4.364;2023-04-03T06:22:27;4.00;94.00
23079;DHT22;11707;50.830;4.364;2023-04-03T06:24:55;4.00;95.40
23079;DHT22;11707;50.830;4.364;2023-04-03T06:27:21;4.00;95.40
23079;DHT22;11707;50.830;4.364;2023-04-03T06:29:47;4.20;94.80
23079;DHT22;11707;50.830;4.364;2023-04-03T06:32:14;4.30;93.90
23079;DHT22;11707;50.830;4.364;2023-04-03T06:34:42;4.40;91.40
23079;DHT22;11707;50.830;4.364;2023-04-03T06:37:22;4.50;90.00
23079;DHT22;11707;50.830;4.364;2023-04-03T06:39:48;4.60;87.30
23079;DHT22;11707;50.830;4.364;2023-04-03T06:42:14;4.70;86.30
23079;DHT22;11707;50.830;4.364;2023-04-03T06:44:39;4.60;79.30
23079;DHT22;11707;50.830;4.364;2023-04-03T06:47:11;4.60;85.00
23079;DHT22;11707;50.830;4.364;2023-04-03T06:49:37;4.70;85.20
23079;DHT22;11707;50.830;4.364;2023-04-03T06:52:03;4.70;84.40
23079;DHT22;11707;50.830;4.364;2023-04-03T06:54:31;4.70;85.50
23079;DHT22;11707;50.830;4.364;2023-04-03T06:56:57;4.70;84.90
23079;DHT22;11707;50.830;4.364;2023-04-03T06:59:22;4.70;85.50
23079;DHT22;11707;50.830;4.364;2023-04-03T07:01:48;4.80;86.20
23079;DHT22;11707;50.830;4.364;2023-04-03T07:04:19;4.80;87.40
23079;DHT22;11707;50.830;4.364;2023-04-03T07:06:50;4.80;87.70
23079;DHT22;11707;50.830;4.364;2023-04-03T07:09:17;4.70;89.20
23079;DHT22;11707;50.830;4.364;2023-04-03T07:11:49;4.70;90.50
23079;DHT22;11707;50.830;4.364;2023-04-03T07:14:14;4.60;90.70
23079;DHT22;11707;50.830;4.364;2023-04-03T07:16:40;4.60;92.60
23079;DHT22;11707;50.830;4.364;2023-04-03T07:19:06;4.70;92.00
23079;DHT22;11707;50.830;4.364;2023-04-03T07:21:33;4.80;91.20
23079;DHT22;11707;50.830;4.364;2023-04-03T07:24:02;4.70;91.10
23079;DHT22;11707;50.830;4.364;2023-04-03T07:26:27;4.60;92.20
23079;DHT22;11707;50.830;4.364;2023-04-03T07:28:55;4.70;92.90
23079;DHT22;11707;50.830;4.364;2023-04-03T07:31:21;4.90;91.20
23079;DHT22;11707;50.830;4.364;2023-04-03T07:33:49;4.90;90.30
23079;DHT22;11707;50.830;4.364;2023-04-03T07:36:19;5.10;90.30
23079;DHT22;11707;50.830;4.364;2023-04-03T07:38:45;5.00;85.80
23079;DHT22;11707;50.830;4.364;2023-04-03T07:41:16;5.00;83.40
23079;DHT22;11707;50.830;4.364;2023-04-03T07:43:45;5.00;84.90
23079;DHT22;11707;50.830;4.364;2023-04-03T07:46:12;5.00;81.50
23079;DHT22;11707;50.830;4.364;2023-04-03T07:48:38;4.90;82.70
23079;DHT22;11707;50.830;4.364;2023-04-03T07:51:04;5.00;83.80
23079;DHT22;11707;50.830;4.364;2023-04-03T07:53:31;5.20;78.50
23079;DHT22;11707;50.830;4.364;2023-04-03T07:55:59;5.20;75.90
23079;DHT22;11707;50.830;4.364;2023-04-03T07:58:25;5.30;76.50
23079;DHT22;11707;50.830;4.364;2023-04-03T08:00:56;5.40;70.30
23079;DHT22;11707;50.830;4.364;2023-04-03T08:03:25;5.40;70.30
23079;DHT22;11707;50.830;4.364;2023-04-03T08:05:53;5.50;75.00
23079;DHT22;11707;50.830;4.364;2023-04-03T08:08:21;5.80;65.80
23079;DHT22;11707;50.830;4.364;2023-04-03T08:10:52;5.90;57.50
23079;DHT22;11707;50.830;4.364;2023-04-03T08:13:21;5.90;49.10
23079;DHT22;11707;50.830;4.364;2023-04-03T08:15:47;6.00;48.50
23079;DHT22;11707;50.830;4.364;2023-04-03T08:18:15;6.00;49.40
23079;DHT22;11707;50.830;4.364;2023-04-03T08:20:41;6.00;46.10
23079;DHT22;11707;50.830;4.364;2023-04-03T08:23:08;6.10;43.30
23079;DHT22;11707;50.830;4.364;2023-04-03T08:25:38;6.20;44.60
23079;DHT22;11707;50.830;4.364;2023-04-03T08:28:10;6.30;42.30
23079;DHT22;11707;50.830;4.364;2023-04-03T08:30:40;6.50;34.80
23079;DHT22;11707;50.830;4.364;2023-04-03T08:33:07;6.60;21.30
23079;DHT22;11707;50.830;4.364;2023-04-03T08:35:33;6.70;29.10
23079;DHT22;11707;50.830;4.364;2023-04-03T08:38:03;6.70;26.10
23079;DHT22;11707;50.830;4.364;2023-04-03T08:40:28;6.80;26.10
23079;DHT22;11707;50.830;4.364;2023-04-03T08:43:05;6.90;21.20
23079;DHT22;11707;50.830;4.364;2023-04-03T08:45:44;7.00;13.20
23079;DHT22;11707;50.830;4.364;2023-04-03T08:48:29;7.00;7.60
23079;DHT22;11707;50.830;4.364;2023-04-03T08:51:02;6.90;5.00
23079;DHT22;11707;50.830;4.364;2023-04-03T08:53:33;6.80;1.00
23079;DHT22;11707;50.830;4.364;2023-04-03T08:56:09;6.80;1.00
23079;DHT22;11707;50.830;4.364;2023-04-03T09:01:26;6.90;1.00
23079;DHT22;11707;50.830;4.364;2023-04-03T09:03:55;6.80;1.00
23079;DHT22;11707;50.830;4.364;2023-04-03T09:06:28;6.90;1.00
23079;DHT22;11707;50.830;4.364;2023-04-03T09:09:21;7.00;99.90
23079;DHT22;11707;50.830;4.364;2023-04-03T09:12:12;7.00;1.00
23079;DHT22;11707;50.830;4.364;2023-04-03T09:14:53;7.20;1.00
23079;DHT22;11707;50.830;4.364;2023-04-03T09:19:56;7.30;99.90
23079;DHT22;11707;50.830;4.364;2023-04-03T09:22:24;7.30;99.90
23079;DHT22;11707;50.830;4.364;2023-04-03T09:25:02;7.40;99.90
23079;DHT22;11707;50.830;4.364;2023-04-03T09:27:31;7.60;99.90
23079;DHT22;11707;50.830;4.364;2023-04-03T09:29:57;7.50;1.00
23079;DHT22;11707;50.830;4.364;2023-04-03T09:32:34;7.50;1.00
23079;DHT22;11707;50.830;4.364;2023-04-03T09:35:13;7.70;1.00
23079;DHT22;11707;50.830;4.364;2023-04-03T09:37:43;7.70;1.00
23079;DHT22;11707;50.830;4.364;2023-04-03T09:40:42;7.80;1.00
23079;DHT22;11707;50.830;4.364;2023-04-03T09:45:47;8.10;99.90
23079;DHT22;11707;50.830;4.364;2023-04-03T09:48:20;8.30;99.90
23079;DHT22;11707;50.830;4.364;2023-04-03T09:50:58;8.40;40.20
23079;DHT22;11707;50.830;4.364;2023-04-03T09:53:41;8.30;1.00
23079;DHT22;11707;50.830;4.364;2023-04-03T09:59:24;8.10;1.00
23079;DHT22;11707;50.830;4.364;2023-04-03T10:01:32;7.80;62.60
23079;DHT22;11707;50.830;4.364;2023-04-03T10:06:51;7.90;99.90
23079;DHT22;11707;50.830;4.364;2023-04-03T10:09:27;8.00;99.90
23079;DHT22;11707;50.830;4.364;2023-04-03T10:14:32;8.30;99.90
23079;DHT22;11707;50.830;4.364;2023-04-03T10:19:55;8.20;99.90
23079;DHT22;11707;50.830;4.364;2023-04-03T10:28:04;8.50;99.90
23079;DHT22;11707;50.830;4.364;2023-04-03T10:31:00;8.30;99.90
23079;DHT22;11707;50.830;4.364;2023-04-03T10:33:39;8.30;1.00
23079;DHT22;11707;50.830;4.364;2023-04-03T10:42:09;8.70;43.30
23079;DHT22;11707;50.830;4.364;2023-04-03T10:45:15;8.70;99.90
23079;DHT22;11707;50.830;4.364;2023-04-03T10:53:07;9.30;99.90
23079;DHT22;11707;50.830;4.364;2023-04-03T10:56:22;8.90;1.00
23079;DHT22;11707;50.830;4.364;2023-04-03T11:02:23;9.10;99.90
23079;DHT22;11707;50.830;4.364;2023-04-03T11:05:02;9.00;99.90
23079;DHT22;11707;50.830;4.364;2023-04-03T11:07:38;9.00;83.60
23079;DHT22;11707;50.830;4.364;2023-04-03T11:10:21;9.10;99.90
23079;DHT22;11707;50.830;4.364;2023-04-03T11:12:56;9.00;99.90
23079;DHT22;11707;50.830;4.364;2023-04-03T11:15:24;9.00;99.90
23079;DHT22;11707;50.830;4.364;2023-04-03T11:18:11;9.10;99.90
23079;DHT22;11707;50.830;4.364;2023-04-03T11:20:43;9.20;99.90
23079;DHT22;11707;50.830;4.364;2023-04-03T11:23:25;9.20;99.90
23079;DHT22;11707;50.830;4.364;2023-04-03T11:25:56;9.00;9.10
23079;DHT22;11707;50.830;4.364;2023-04-03T11:28:25;8.90;13.80
23079;DHT22;11707;50.830;4.364;2023-04-03T11:36:46;9.20;23.90
23079;DHT22;11707;50.830;4.364;2023-04-03T11:39:26;9.10;59.10
23079;DHT22;11707;50.830;4.364;2023-04-03T11:41:53;9.20;99.90
23079;DHT22;11707;50.830;4.364;2023-04-03T11:44:34;9.30;99.90
23079;DHT22;11707;50.830;4.364;2023-04-03T11:47:03;9.20;53.30
23079;DHT22;11707;50.830;4.364;2023-04-03T11:50:00;9.20;34.80
23079;DHT22;11707;50.830;4.364;2023-04-03T12:24:22;9.50;1.00
23079;DHT22;11707;50.830;4.364;2023-04-03T12:40:42;9.70;99.90
23079;DHT22;11707;50.830;4.364;2023-04-03T12:46:23;9.80;99.90
23079;DHT22;11707;50.830;4.364;2023-04-03T12:48:54;9.90;99.90
23079;DHT22;11707;50.830;4.364;2023-04-03T12:51:42;10.00;99.90
23079;DHT22;11707;50.830;4.364;2023-04-03T12:56:45;10.00;99.90
23079;DHT22;11707;50.830;4.364;2023-04-03T12:59:24;10.00;99.90
23079;DHT22;11707;50.830;4.364;2023-04-03T13:01:58;10.10;99.90
23079;DHT22;11707;50.830;4.364;2023-04-03T13:04:26;10.30;99.90
23079;DHT22;11707;50.830;4.364;2023-04-03T13:06:52;10.00;99.90
23079;DHT22;11707;50.830;4.364;2023-04-03T13:09:22;9.80;99.90
23079;DHT22;11707;50.830;4.364;2023-04-03T13:12:03;9.90;99.90
23079;DHT22;11707;50.830;4.364;2023-04-03T13:14:36;9.90;99.90
23079;DHT22;11707;50.830;4.364;2023-04-03T13:17:12;10.00;99.90
23079;DHT22;11707;50.830;4.364;2023-04-03T13:19:39;10.00;99.90
23079;DHT22;11707;50.830;4.364;2023-04-03T13:22:36;10.10;99.90
23079;DHT22;11707;50.830;4.364;2023-04-03T13:25:11;10.30;99.90
23079;DHT22;11707;50.830;4.364;2023-04-03T13:27:39;10.90;99.90
23079;DHT22;11707;50.830;4.364;2023-04-03T13:30:37;12.20;99.90
23079;DHT22;11707;50.830;4.364;2023-04-03T13:33:19;13.90;65.40
23079;DHT22;11707;50.830;4.364;2023-04-03T13:35:46;14.50;13.50
23079;DHT22;11707;50.830;4.364;2023-04-03T13:41:30;15.00;1.00
23079;DHT22;11707;50.830;4.364;2023-04-03T13:43:56;14.90;1.00
23079;DHT22;11707;50.830;4.364;2023-04-03T13:46:25;15.60;1.00
23079;DHT22;11707;50.830;4.364;2023-04-03T13:48:54;15.90;1.00
23079;DHT22;11707;50.830;4.364;2023-04-03T13:51:26;15.60;1.00
23079;DHT22;11707;50.830;4.364;2023-04-03T13:54:17;15.80;1.00
23079;DHT22;11707;50.830;4.364;2023-04-03T13:56:44;15.50;1.00
23079;DHT22;11707;50.830;4.364;2023-04-03T14:07:02;17.00;1.00
23079;DHT22;11707;50.830;4.364;2023-04-03T14:09:29;16.90;1.00
23079;DHT22;11707;50.830;4.364;2023-04-03T14:12:04;16.20;1.00
23079;DHT22;11707;50.830;4.364;2023-04-03T14:14:36;16.20;1.00
23079;DHT22;11707;50.830;4.364;2023-04-03T14:17:14;15.00;1.00
23079;DHT22;11707;50.830;4.364;2023-04-03T14:19:40;15.30;1.00
23079;DHT22;11707;50.830;4.364;2023-04-03T14:22:18;15.80;1.00
23079;DHT22;11707;50.830;4.364;2023-04-03T14:24:47;17.50;1.00
23079;DHT22;11707;50.830;4.364;2023-04-03T14:27:22;18.00;1.00
23079;DHT22;11707;50.830;4.364;2023-04-03T14:29:49;17.10;1.00
23079;DHT22;11707;50.830;4.364;2023-04-03T14:32:20;16.60;1.00
23079;DHT22;11707;50.830;4.364;2023-04-03T14:34:46;17.70;1.00
23079;DHT22;11707;50.830;4.364;2023-04-03T14:37:17;17.80;1.00
23079;DHT22;11707;50.830;4.364;2023-04-03T14:39:45;17.40;1.00
23079;DHT22;11707;50.830;4.364;2023-04-03T14:42:18;16.10;1.00
23079;DHT22;11707;50.830;4.364;2023-04-03T14:44:46;16.00;1.00
23079;DHT22;11707;50.830;4.364;2023-04-03T14:47:14;17.90;1.00
23079;DHT22;11707;50.830;4.364;2023-04-03T14:49:41;17.90;1.00
23079;DHT22;11707;50.830;4.364;2023-04-03T14:52:32;15.90;1.00
23079;DHT22;11707;50.830;4.364;2023-04-03T14:54:59;16.40;1.00
23079;DHT22;11707;50.830;4.364;2023-04-03T14:57:27;16.70;1.00
23079;DHT22;11707;50.830;4.364;2023-04-03T14:59:53;17.10;1.00
23079;DHT22;11707;50.830;4.364;2023-04-03T15:02:32;17.00;1.00
23079;DHT22;11707;50.830;4.364;2023-04-03T15:04:59;17.00;1.00
23079;DHT22;11707;50.830;4.364;2023-04-03T15:07:32;16.10;1.00
23079;DHT22;11707;50.830;4.364;2023-04-03T15:10:03;15.80;1.00
23079;DHT22;11707;50.830;4.364;2023-04-03T15:12:32;16.10;1.00
23079;DHT22;11707;50.830;4.364;2023-04-03T15:14:57;15.80;1.00
23079;DHT22;11707;50.830;4.364;2023-04-03T15:17:23;15.10;99.90
23079;DHT22;11707;50.830;4.364;2023-04-03T15:19:49;15.60;1.00
23079;DHT22;11707;50.830;4.364;2023-04-03T15:22:17;16.00;1.00
23079;DHT22;11707;50.830;4.364;2023-04-03T15:24:43;15.40;99.90
23079;DHT22;11707;50.830;4.364;2023-04-03T15:27:10;15.20;99.90
23079;DHT22;11707;50.830;4.364;2023-04-03T15:29:37;15.40;99.90
23079;DHT22;11707;50.830;4.364;2023-04-03T15:32:03;15.00;99.90
23079;DHT22;11707;50.830;4.364;2023-04-03T15:34:29;15.70;99.90
23079;DHT22;11707;50.830;4.364;2023-04-03T15:36:57;15.60;99.90
23079;DHT22;11707;50.830;4.364;2023-04-03T15:39:27;14.70;99.90
23079;DHT22;11707;50.830;4.364;2023-04-03T15:41:53;15.00;99.90
23079;DHT22;11707;50.830;4.364;2023-04-03T15:44:20;14.50;99.90
23079;DHT22;11707;50.830;4.364;2023-04-03T15:46:46;12.80;99.90
23079;DHT22;11707;50.830;4.364;2023-04-03T15:49:19;12.20;99.90
23079;DHT22;11707;50.830;4.364;2023-04-03T15:51:46;11.50;99.90
23079;DHT22;11707;50.830;4.364;2023-04-03T15:54:11;11.50;99.90
23079;DHT22;11707;50.830;4.364;2023-04-03T15:56:37;11.30;99.90
23079;DHT22;11707;50.830;4.364;2023-04-03T15:59:03;11.20;99.90
23079;DHT22;11707;50.830;4.364;2023-04-03T16:01:29;11.00;99.90
23079;DHT22;11707;50.830;4.364;2023-04-03T16:03:54;10.80;99.90
23079;DHT22;11707;50.830;4.364;2023-04-03T16:06:21;10.70;99.90
23079;DHT22;11707;50.830;4.364;2023-04-03T16:08:47;10.80;99.90
23079;DHT22;11707;50.830;4.364;2023-04-03T16:11:16;10.60;1.00
23079;DHT22;11707;50.830;4.364;2023-04-03T16:13:42;10.60;1.00
23079;DHT22;11707;50.830;4.364;2023-04-03T16:16:08;10.50;1.00
23079;DHT22;11707;50.830;4.364;2023-04-03T16:18:35;10.40;1.00
23079;DHT22;11707;50.830;4.364;2023-04-03T16:21:01;10.40;1.00
23079;DHT22;11707;50.830;4.364;2023-04-03T16:23:27;10.30;1.00
23079;DHT22;11707;50.830;4.364;2023-04-03T16:25:53;10.20;1.00
23079;DHT22;11707;50.830;4.364;2023-04-03T16:28:19;10.20;1.00
23079;DHT22;11707;50.830;4.364;2023-04-03T16:30:50;10.20;1.00
23079;DHT22;11707;50.830;4.364;2023-04-03T16:33:16;10.20;1.00
23079;DHT22;11707;50.830;4.364;2023-04-03T16:35:47;10.20;1.00
23079;DHT22;11707;50.830;4.364;2023-04-03T16:38:15;10.00;1.00
23079;DHT22;11707;50.830;4.364;2023-04-03T16:40:44;9.90;1.00
23079;DHT22;11707;50.830;4.364;2023-04-03T16:43:09;9.90;1.00
23079;DHT22;11707;50.830;4.364;2023-04-03T16:45:35;10.00;1.00
23079;DHT22;11707;50.830;4.364;2023-04-03T16:48:01;10.00;1.00
23079;DHT22;11707;50.830;4.364;2023-04-03T16:50:27;10.00;1.00
23079;DHT22;11707;50.830;4.364;2023-04-03T16:52:55;10.00;1.00
23079;DHT22;11707;50.830;4.364;2023-04-03T16:55:21;9.90;1.00
23079;DHT22;11707;50.830;4.364;2023-04-03T16:57:46;9.80;1.00
23079;DHT22;11707;50.830;4.364;2023-04-03T17:00:13;9.90;1.00
23079;DHT22;11707;50.830;4.364;2023-04-03T17:02:40;10.00;1.00
23079;DHT22;11707;50.830;4.364;2023-04-03T17:05:06;10.00;1.00
23079;DHT22;11707;50.830;4.364;2023-04-03T17:07:32;10.00;1.00
23079;DHT22;11707;50.830;4.364;2023-04-03T17:09:58;10.00;1.00
23079;DHT22;11707;50.830;4.364;2023-04-03T17:12:25;10.00;1.00
23079;DHT22;11707;50.830;4.364;2023-04-03T17:14:50;9.90;1.00
23079;DHT22;11707;50.830;4.364;2023-04-03T17:17:21;9.80;1.00
23079;DHT22;11707;50.830;4.364;2023-04-03T17:19:50;9.80;1.00
23079;DHT22;11707;50.830;4.364;2023-04-03T17:22:16;9.80;1.00
23079;DHT22;11707;50.830;4.364;2023-04-03T17:24:42;9.60;1.00
23079;DHT22;11707;50.830;4.364;2023-04-03T17:27:09;9.60;1.00
23079;DHT22;11707;50.830;4.364;2023-04-03T17:29:37;9.60;1.00
23079;DHT22;11707;50.830;4.364;2023-04-03T17:32:03;9.60;1.00
23079;DHT22;11707;50.830;4.364;2023-04-03T17:34:31;9.60;1.00
23079;DHT22;11707;50.830;4.364;2023-04-03T17:36:58;9.60;2.80
23079;DHT22;11707;50.830;4.364;2023-04-03T17:39:25;9.50;5.50
23079;DHT22;11707;50.830;4.364;2023-04-03T17:41:53;9.40;13.00
23079;DHT22;11707;50.830;4.364;2023-04-03T17:44:20;9.30;17.80
23079;DHT22;11707;50.830;4.364;2023-04-03T17:46:46;9.20;27.30
23079;DHT22;11707;50.830;4.364;2023-04-03T17:49:11;9.20;43.70
23079;DHT22;11707;50.830;4.364;2023-04-03T17:51:40;9.20;54.30
23079;DHT22;11707;50.830;4.364;2023-04-03T17:54:06;9.10;73.50
23079;DHT22;11707;50.830;4.364;2023-04-03T17:56:33;9.20;97.10